createdAt,value
2018-01-11T00:01:59.924Z,11.95
2018-01-11T00:04:27.651Z,11.20
2018-01-11T00:06:55.365Z,10.95
2018-01-11T00:09:23.077Z,10.75
2018-01-11T00:11:50.793Z,11.07
2018-01-11T00:14:18.508Z,11.25
2018-01-11T00:16:46.220Z,13.27
2018-01-11T00:19:13.937Z,12.25
2018-01-11T00:21:41.649Z,12.05
2018-01-11T00:24:09.369Z,13.13
2018-01-11T00:26:37.077Z,11.60
2018-01-11T00:29:04.794Z,11.88
2018-01-11T00:31:32.509Z,11.30
2018-01-11T00:34:00.222Z,12.05
2018-01-11T00:36:27.940Z,11.80
2018-01-11T00:38:55.654Z,13.00
2018-01-11T00:41:23.369Z,11.68
2018-01-11T00:43:51.082Z,13.35
2018-01-11T00:46:18.804Z,13.48
2018-01-11T00:48:47.305Z,11.60
2018-01-11T00:51:15.801Z,12.30
2018-01-11T00:53:43.526Z,12.70
2018-01-11T00:56:11.244Z,13.68
2018-01-11T00:58:38.960Z,13.30
2018-01-11T01:01:07.441Z,12.90
2018-01-11T01:03:35.924Z,13.45
2018-01-11T01:06:04.419Z,15.40
2018-01-11T01:08:32.897Z,14.45
2018-01-11T01:11:01.378Z,14.48
2018-01-11T01:13:29.865Z,12.82
2018-01-11T01:15:58.345Z,13.98
2018-01-11T01:18:26.830Z,14.30
2018-01-11T01:20:54.557Z,15.20
2018-01-11T01:23:22.281Z,14.18
2018-01-11T01:25:50.329Z,14.52
2018-01-11T01:28:18.805Z,14.93
2018-01-11T01:30:47.305Z,15.27
2018-01-11T01:33:15.018Z,13.68
2018-01-11T01:35:42.745Z,14.73
2018-01-11T01:38:10.450Z,15.80
2018-01-11T01:40:38.186Z,14.07
2018-01-11T01:43:05.914Z,15.68
2018-01-11T01:45:34.394Z,14.82
2018-01-11T01:48:02.882Z,15.48
2018-01-11T01:50:30.598Z,18.12
2018-01-11T01:52:58.318Z,16.40
2018-01-11T01:55:26.058Z,16.58
2018-01-11T01:57:54.531Z,15.90
2018-01-11T02:00:23.021Z,15.98
2018-01-11T02:02:51.501Z,15.60
2018-01-11T02:05:19.992Z,16.60
2018-01-11T02:07:48.470Z,14.93
2018-01-11T02:10:16.953Z,14.50
2018-01-11T02:12:45.450Z,16.35
2018-01-11T02:15:13.201Z,17.37
2018-01-11T02:17:41.677Z,12.50
2018-01-11T02:20:10.205Z,14.85
2018-01-11T02:22:37.931Z,14.05
2018-01-11T02:25:06.411Z,13.90
2018-01-11T02:27:34.898Z,14.60
2018-01-11T02:30:03.400Z,14.35
2018-01-11T02:32:31.115Z,13.25
2018-01-11T02:34:58.836Z,13.40
2018-01-11T02:37:26.550Z,13.80
2018-01-11T02:39:54.267Z,14.30
2018-01-11T02:42:21.987Z,15.50
2018-01-11T02:44:50.607Z,14.98
2018-01-11T02:47:18.328Z,15.02
2018-01-11T02:49:46.056Z,14.45
2018-01-11T02:52:13.771Z,14.70
2018-01-11T02:54:42.257Z,16.25
2018-01-11T02:57:10.744Z,15.20
2018-01-11T02:59:38.476Z,16.60
2018-01-11T03:02:06.200Z,16.73
2018-01-11T03:04:33.920Z,16.27
2018-01-11T03:07:02.419Z,16.08
2018-01-11T03:09:30.139Z,16.12
2018-01-11T03:11:57.855Z,15.32
2018-01-11T03:14:25.570Z,16.58
2018-01-11T03:16:53.286Z,15.60
2018-01-11T03:19:21.025Z,15.82
2018-01-11T03:21:49.514Z,15.70
2018-01-11T03:24:17.999Z,15.85
2018-01-11T03:26:46.498Z,16.55
2018-01-11T03:29:14.218Z,14.95
2018-01-11T03:31:41.937Z,17.00
2018-01-11T03:34:09.649Z,16.73
2018-01-11T03:36:37.370Z,16.42
2018-01-11T03:39:05.152Z,15.98
2018-01-11T03:41:32.882Z,17.10
2018-01-11T03:44:00.598Z,17.17
2018-01-11T03:46:28.326Z,16.75
2018-01-11T03:48:56.043Z,15.77
2018-01-11T03:51:24.531Z,19.00
2018-01-11T03:53:53.016Z,17.98
2018-01-11T03:56:21.499Z,18.08
2018-01-11T03:58:49.989Z,17.50
2018-01-11T04:01:17.711Z,16.37
2018-01-11T04:03:45.434Z,14.85
2018-01-11T04:06:13.145Z,15.32
2018-01-11T04:08:40.904Z,15.90
2018-01-11T04:11:08.617Z,16.00
2018-01-11T04:13:36.345Z,17.10
2018-01-11T04:16:04.076Z,18.60
2018-01-11T04:18:31.834Z,17.02
2018-01-11T04:20:59.550Z,15.13
2018-01-11T04:23:28.031Z,16.73
2018-01-11T04:25:56.519Z,15.20
2018-01-11T04:28:25.002Z,15.63
2018-01-11T04:30:53.490Z,17.27
2018-01-11T04:33:21.208Z,14.90
2018-01-11T04:35:48.941Z,15.40
2018-01-11T04:38:16.666Z,16.40
2018-01-11T04:40:45.147Z,17.77
2018-01-11T04:43:13.625Z,17.00
2018-01-11T04:45:42.102Z,17.17
2018-01-11T04:48:09.826Z,18.60
2018-01-11T04:50:37.541Z,17.02
2018-01-11T04:53:06.021Z,16.67
2018-01-11T04:55:34.498Z,17.02
2018-01-11T04:58:02.973Z,15.35
2018-01-11T05:00:30.730Z,14.98
2018-01-11T05:02:58.451Z,17.10
2018-01-11T05:05:26.174Z,17.60
2018-01-11T05:07:54.654Z,17.23
2018-01-11T05:10:23.137Z,15.27
2018-01-11T05:12:51.613Z,16.20
2018-01-11T05:15:19.324Z,16.60
2018-01-11T05:17:47.046Z,14.50
2018-01-11T05:20:15.538Z,16.12
2018-01-11T05:22:44.022Z,15.88
2018-01-11T05:25:12.506Z,15.45
2018-01-11T05:27:40.994Z,15.40
2018-01-11T05:30:08.705Z,15.80
2018-01-11T05:32:36.417Z,16.73
2018-01-11T05:35:04.903Z,15.07
2018-01-11T05:37:32.655Z,15.85
2018-01-11T05:40:01.134Z,15.52
2018-01-11T05:42:29.615Z,14.63
2018-01-11T05:44:58.764Z,14.23
2018-01-11T05:47:26.777Z,13.85
2018-01-11T05:49:54.221Z,16.37
2018-01-11T05:52:21.938Z,16.80
2018-01-11T05:54:49.649Z,19.87
2018-01-11T05:57:17.371Z,19.20
2018-01-11T05:59:45.083Z,19.98
2018-01-11T06:02:12.811Z,21.60
2018-01-11T06:04:40.516Z,22.35
2018-01-11T06:07:08.233Z,22.25
2018-01-11T06:09:35.962Z,21.37
2018-01-11T06:12:04.446Z,23.60
2018-01-11T06:14:32.922Z,20.73
2018-01-11T06:17:01.394Z,22.30
2018-01-11T06:19:29.881Z,17.90
2018-01-11T06:21:58.357Z,20.77
2018-01-11T06:24:26.829Z,17.55
2018-01-11T06:26:54.541Z,17.70
2018-01-11T06:29:22.258Z,15.70
2018-01-11T06:31:49.974Z,14.85
2018-01-11T06:34:17.685Z,14.02
2018-01-11T06:36:45.404Z,15.68
2018-01-11T06:39:13.113Z,13.88
2018-01-11T06:41:40.835Z,15.15
2018-01-11T06:44:08.562Z,14.77
2018-01-11T06:46:37.042Z,13.05
2018-01-11T06:51:39.378Z,15.80
2018-01-11T06:54:07.081Z,15.10
2018-01-11T06:56:35.557Z,13.60
2018-01-11T06:59:03.271Z,13.73
2018-01-11T07:01:30.977Z,13.62
2018-01-11T07:03:58.684Z,13.77
2018-01-11T07:06:26.390Z,12.77
2018-01-11T07:08:54.102Z,13.85
2018-01-11T07:11:21.809Z,13.02
2018-01-11T07:13:49.569Z,13.18
2018-01-11T07:16:17.281Z,12.48
2018-01-11T07:18:45.767Z,12.57
2018-01-11T07:21:14.241Z,15.00
2018-01-11T07:23:42.721Z,15.70
2018-01-11T07:26:11.206Z,16.65
2018-01-11T07:28:39.685Z,15.80
2018-01-11T07:31:08.163Z,17.35
2018-01-11T07:33:36.649Z,17.87
2018-01-11T07:36:05.131Z,19.92
2018-01-11T07:38:33.630Z,22.33
2018-01-11T07:41:01.342Z,20.83
2018-01-11T07:43:29.058Z,19.25
2018-01-11T07:45:56.773Z,18.87
2018-01-11T07:48:24.482Z,16.50
2018-01-11T07:50:52.949Z,16.00
2018-01-11T07:53:21.425Z,13.80
2018-01-11T07:55:49.907Z,15.20
2018-01-11T07:58:18.393Z,15.45
2018-01-11T08:00:46.889Z,17.17
2018-01-11T08:03:15.367Z,17.25
2018-01-11T08:05:43.842Z,17.17
2018-01-11T08:08:12.325Z,16.15
2018-01-11T08:10:40.874Z,14.40
2018-01-11T08:13:08.593Z,16.87
2018-01-11T08:15:36.318Z,13.68
2018-01-11T08:18:04.813Z,13.52
2018-01-11T08:20:33.298Z,13.85
2018-01-11T08:23:01.786Z,13.48
2018-01-11T08:25:30.274Z,13.65
2018-01-11T08:27:58.007Z,12.75
2018-01-11T08:30:25.734Z,12.68
2018-01-11T08:32:53.446Z,12.25
2018-01-11T08:35:21.925Z,12.98
2018-01-11T08:37:49.635Z,11.73
2018-01-11T08:40:17.365Z,12.32
2018-01-11T08:42:45.837Z,12.45
2018-01-11T08:45:14.317Z,11.85
2018-01-11T08:47:42.025Z,12.88
2018-01-11T08:50:09.759Z,12.52
2018-01-11T08:52:38.238Z,11.25
2018-01-11T08:55:06.717Z,11.07
2018-01-11T08:57:35.197Z,12.30
2018-01-11T09:00:03.742Z,12.15
2018-01-11T09:02:31.457Z,11.20
2018-01-11T09:04:59.941Z,11.80
2018-01-11T09:07:27.669Z,11.77
2018-01-11T09:09:55.386Z,10.43
2018-01-11T09:12:23.097Z,10.95
2018-01-11T09:14:50.811Z,11.20
2018-01-11T09:17:18.522Z,11.38
2018-01-11T09:19:46.235Z,11.80
2018-01-11T09:22:13.949Z,10.60
2018-01-11T09:24:41.677Z,11.43
2018-01-11T09:27:09.391Z,9.75
2018-01-11T09:29:37.873Z,11.35
2018-01-11T09:32:05.591Z,11.00
2018-01-11T09:34:33.303Z,11.00
2018-01-11T09:37:01.791Z,10.00
2018-01-11T09:39:30.273Z,10.13
2018-01-11T09:41:58.749Z,10.73
2018-01-11T09:44:27.225Z,10.35
2018-01-11T09:46:54.998Z,10.63
2018-01-11T09:49:23.482Z,11.02
2018-01-11T09:51:51.990Z,10.40
2018-01-11T09:54:19.709Z,10.35
2018-01-11T09:56:47.460Z,9.75
2018-01-11T09:59:15.183Z,10.38
2018-01-11T10:01:42.906Z,10.73
2018-01-11T10:04:10.626Z,9.75
2018-01-11T10:06:38.342Z,9.57
2018-01-11T10:09:06.096Z,10.55
2018-01-11T10:11:33.822Z,9.52
2018-01-11T10:14:01.538Z,10.07
2018-01-11T10:16:30.044Z,10.55
2018-01-11T10:18:57.754Z,8.38
2018-01-11T10:21:25.510Z,10.35
2018-01-11T10:23:53.230Z,10.32
2018-01-11T10:26:20.995Z,9.40
2018-01-11T10:28:48.761Z,10.73
2018-01-11T10:31:16.506Z,10.43
2018-01-11T10:33:44.982Z,9.68
2018-01-11T10:36:12.710Z,11.02
2018-01-11T10:38:40.425Z,10.35
2018-01-11T10:41:08.906Z,10.05
2018-01-11T10:43:37.377Z,9.98
2018-01-11T10:46:05.858Z,9.73
2018-01-11T10:48:34.351Z,9.88
2018-01-11T10:51:02.834Z,10.20
2018-01-11T10:53:31.324Z,9.02
2018-01-11T10:55:59.863Z,10.48
2018-01-11T10:58:27.566Z,11.40
2018-01-11T11:01:01.713Z,10.25
2018-01-11T11:03:29.429Z,10.57
2018-01-11T11:05:57.138Z,10.45
2018-01-11T11:08:24.901Z,9.40
2018-01-11T11:10:52.618Z,9.45
2018-01-11T11:13:20.336Z,9.20
2018-01-11T11:15:48.220Z,9.10
2018-01-11T11:18:16.088Z,8.85
2018-01-11T11:20:43.807Z,9.25
2018-01-11T11:23:11.553Z,9.43
2018-01-11T11:25:40.046Z,8.63
2018-01-11T11:28:08.537Z,9.20
2018-01-11T11:30:36.258Z,8.73
2018-01-11T11:33:04.008Z,9.90
2018-01-11T11:35:31.875Z,8.90
2018-01-11T11:37:59.742Z,10.18
2018-01-11T11:40:27.610Z,10.15
2018-01-11T11:42:55.477Z,10.18
2018-01-11T11:45:23.343Z,11.20
2018-01-11T11:47:51.212Z,10.25
2018-01-11T11:50:19.080Z,10.23
2018-01-11T11:52:46.947Z,10.23
2018-01-11T11:55:14.745Z,10.38
2018-01-11T11:57:42.475Z,10.18
2018-01-11T12:00:10.206Z,11.02
2018-01-11T12:02:37.935Z,9.55
2018-01-11T12:05:05.658Z,9.35
2018-01-11T12:07:33.377Z,9.57
2018-01-11T12:10:01.890Z,9.77
2018-01-11T12:12:29.606Z,10.75
2018-01-11T12:14:57.334Z,11.18
2018-01-11T12:17:25.074Z,10.35
2018-01-11T12:19:52.794Z,9.23
2018-01-11T12:22:20.514Z,11.20
2018-01-11T12:24:48.304Z,12.90
2018-01-11T12:27:16.030Z,10.20
2018-01-11T12:29:43.750Z,11.63
2018-01-11T12:32:11.595Z,11.18
2018-01-11T12:34:39.323Z,10.18
2018-01-11T12:37:07.056Z,11.75
2018-01-11T12:39:35.542Z,10.82
2018-01-11T12:42:04.063Z,11.70
2018-01-11T12:44:31.786Z,11.40
2018-01-11T12:47:00.269Z,12.00
2018-01-11T12:49:28.766Z,9.65
2018-01-11T12:51:57.262Z,11.88
2018-01-11T12:54:25.002Z,12.45
2018-01-11T12:56:53.487Z,11.93
2018-01-11T12:59:21.989Z,11.52
2018-01-11T13:01:49.709Z,12.55
2018-01-11T13:04:17.436Z,12.27
2018-01-11T13:06:45.194Z,11.85
2018-01-11T13:09:12.933Z,12.30
2018-01-11T13:11:40.678Z,11.20
2018-01-11T13:14:08.410Z,11.27
2018-01-11T13:16:36.142Z,11.50
2018-01-11T13:19:03.910Z,11.48
2018-01-11T13:21:31.642Z,10.65
2018-01-11T13:24:00.130Z,11.35
2018-01-11T13:26:28.621Z,13.30
2018-01-11T13:28:57.113Z,12.52
2018-01-11T13:31:24.839Z,12.20
2018-01-11T13:33:52.565Z,12.50
2018-01-11T13:36:20.289Z,13.25
2018-01-11T13:38:48.826Z,12.63
2018-01-11T13:41:16.589Z,13.35
2018-01-11T13:43:44.458Z,12.05
2018-01-11T13:46:12.324Z,12.50
2018-01-11T13:48:40.192Z,13.07
2018-01-11T13:51:08.059Z,12.35
2018-01-11T13:53:35.927Z,14.10
2018-01-11T13:56:03.794Z,13.38
2018-01-11T13:58:31.662Z,14.27
2018-01-11T14:00:59.529Z,12.80
2018-01-11T14:03:27.326Z,13.52
2018-01-11T14:05:55.056Z,13.52
2018-01-11T14:08:22.777Z,13.55
2018-01-11T14:10:50.507Z,13.25
2018-01-11T14:13:18.348Z,11.63
2018-01-11T14:15:46.221Z,13.65
2018-01-11T14:18:14.087Z,14.43
2018-01-11T14:20:41.955Z,13.68
2018-01-11T14:23:09.822Z,14.68
2018-01-11T14:25:37.690Z,12.57
2018-01-11T14:28:05.560Z,14.15
2018-01-11T14:30:33.430Z,13.48
2018-01-11T14:33:01.304Z,14.65
2018-01-11T14:35:29.159Z,13.35
2018-01-11T14:37:57.027Z,13.82
2018-01-11T14:40:24.894Z,14.25
2018-01-11T14:42:52.761Z,13.55
2018-01-11T14:45:20.631Z,15.35
2018-01-11T14:47:48.496Z,14.87
2018-01-11T14:50:16.229Z,14.50
2018-01-11T14:52:43.998Z,14.95
2018-01-11T14:55:11.722Z,16.70
2018-01-11T14:57:40.217Z,16.25
2018-01-11T15:00:08.721Z,16.23
2018-01-11T15:02:36.446Z,15.00
2018-01-11T15:05:04.949Z,15.45
2018-01-11T15:07:33.454Z,15.35
2018-01-11T15:10:01.170Z,14.43
2018-01-11T15:12:28.889Z,18.62
2018-01-11T15:14:56.622Z,16.48
2018-01-11T15:17:25.122Z,17.40
2018-01-11T15:19:52.842Z,17.67
2018-01-11T15:22:20.686Z,17.60
2018-01-11T15:24:48.553Z,18.30
2018-01-11T15:27:16.421Z,17.90
2018-01-11T15:29:44.289Z,17.20
2018-01-11T15:32:12.156Z,18.67
2018-01-11T15:34:40.024Z,17.92
2018-01-11T15:37:07.891Z,17.55
2018-01-11T15:39:35.756Z,18.23
2018-01-11T15:42:03.625Z,16.73
2018-01-11T15:44:31.504Z,17.42
2018-01-11T15:46:59.360Z,16.20
2018-01-11T15:49:27.226Z,16.92
2018-01-11T15:51:55.095Z,17.45
2018-01-11T15:54:22.961Z,15.20
2018-01-11T15:56:50.828Z,17.65
2018-01-11T15:59:18.698Z,16.42
2018-01-11T16:01:46.609Z,16.73
2018-01-11T16:04:15.249Z,15.77
2018-01-11T16:06:43.117Z,16.12
2018-01-11T16:09:10.987Z,15.50
2018-01-11T16:11:38.852Z,14.48
2018-01-11T16:14:06.721Z,15.70
2018-01-11T16:16:34.586Z,14.60
2018-01-11T16:19:02.454Z,16.55
2018-01-11T16:21:30.321Z,14.52
2018-01-11T16:23:58.188Z,15.77
2018-01-11T16:26:25.953Z,14.68
2018-01-11T16:28:53.821Z,14.48
2018-01-11T16:31:21.688Z,13.55
2018-01-11T16:33:49.556Z,13.88
2018-01-11T16:36:17.425Z,13.40
2018-01-11T16:38:45.290Z,14.85
2018-01-11T16:41:13.159Z,14.23
2018-01-11T16:43:41.024Z,13.80
2018-01-11T16:46:09.199Z,13.40
2018-01-11T16:48:37.069Z,14.15
2018-01-11T16:51:04.935Z,14.73
2018-01-11T16:53:32.802Z,13.68
2018-01-11T16:56:00.668Z,13.73
2018-01-11T16:58:28.536Z,14.10
2018-01-11T17:00:56.403Z,13.75
2018-01-11T17:03:24.270Z,14.95
2018-01-11T17:05:52.037Z,14.00
2018-01-11T17:08:19.902Z,14.63
2018-01-11T17:10:47.770Z,16.05
2018-01-11T17:13:15.638Z,14.43
2018-01-11T17:15:43.505Z,17.35
2018-01-11T17:18:12.654Z,19.75
2018-01-11T17:20:43.202Z,19.33
2018-01-11T17:23:13.000Z,16.67
2018-01-11T17:25:42.604Z,17.10
2018-01-11T17:28:11.238Z,14.87
2018-01-11T17:30:39.106Z,16.80
2018-01-11T17:33:06.973Z,15.45
2018-01-11T17:35:34.840Z,15.98
2018-01-11T17:38:02.604Z,16.15
2018-01-11T17:40:30.471Z,14.25
2018-01-11T17:42:58.339Z,14.30
2018-01-11T17:45:26.207Z,13.57
2018-01-11T17:47:54.074Z,13.60
2018-01-11T17:50:21.941Z,12.35
2018-01-11T17:52:49.809Z,13.90
2018-01-11T17:55:17.677Z,14.10
2018-01-11T17:57:45.544Z,13.20
2018-01-11T18:00:13.411Z,14.77
2018-01-11T18:02:41.282Z,13.13
2018-01-11T18:05:09.147Z,14.00
2018-01-11T18:07:37.012Z,12.85
2018-01-11T18:10:04.882Z,14.20
2018-01-11T18:12:32.748Z,13.73
2018-01-11T18:15:00.617Z,13.93
2018-01-11T18:17:28.484Z,12.55
2018-01-11T18:19:56.350Z,14.18
2018-01-11T18:22:24.217Z,13.20
2018-01-11T18:24:52.084Z,12.52
2018-01-11T18:27:19.955Z,12.93
2018-01-11T18:29:47.818Z,12.70
2018-01-11T18:32:15.686Z,12.25
2018-01-11T18:34:43.553Z,13.57
2018-01-11T18:37:11.420Z,12.40
2018-01-11T18:39:39.295Z,13.65
2018-01-11T18:42:07.155Z,12.05
2018-01-11T18:44:35.022Z,12.80
2018-01-11T18:47:02.890Z,13.88
2018-01-11T18:49:30.757Z,14.75
2018-01-11T18:51:58.624Z,12.50
2018-01-11T18:54:26.493Z,17.55
2018-01-11T18:56:54.359Z,19.87
2018-01-11T18:59:22.227Z,14.90
2018-01-11T19:01:50.095Z,26.25
2018-01-11T19:04:17.961Z,15.65
2018-01-11T19:06:45.829Z,17.02
2018-01-11T19:09:13.696Z,16.85
2018-01-11T19:11:41.563Z,16.17
2018-01-11T19:14:09.431Z,14.70
2018-01-11T19:16:37.299Z,13.45
2018-01-11T19:19:05.167Z,19.30
2018-01-11T19:21:33.034Z,19.45
2018-01-11T19:24:00.900Z,17.27
2018-01-11T19:26:28.767Z,14.10
2018-01-11T19:28:56.636Z,14.60
2018-01-11T19:31:24.502Z,15.27
2018-01-11T19:33:52.377Z,13.30
2018-01-11T19:36:20.236Z,14.00
2018-01-11T19:38:48.103Z,13.85
2018-01-11T19:41:15.971Z,15.40
2018-01-11T19:43:43.838Z,16.58
2018-01-11T19:46:11.706Z,16.42
2018-01-11T19:48:39.573Z,18.90
2018-01-11T19:51:07.440Z,19.33
2018-01-11T19:53:35.308Z,20.30
2018-01-11T19:56:03.175Z,18.42
2018-01-11T19:58:31.044Z,19.35
2018-01-11T20:00:58.912Z,19.55
2018-01-11T20:03:26.776Z,24.77
2018-01-11T20:05:54.644Z,20.80
2018-01-11T20:08:22.511Z,19.50
2018-01-11T20:10:50.378Z,19.65
2018-01-11T20:13:18.246Z,17.30
2018-01-11T20:15:46.118Z,17.05
2018-01-11T20:18:13.981Z,14.15
2018-01-11T20:20:42.462Z,14.55
2018-01-11T20:23:10.270Z,13.90
2018-01-11T20:25:38.914Z,14.75
2018-01-11T20:28:06.782Z,15.30
2018-01-11T20:30:34.648Z,15.57
2018-01-11T20:33:02.516Z,17.00
2018-01-11T20:35:30.382Z,13.98
2018-01-11T20:37:58.975Z,14.65
2018-01-11T20:40:37.189Z,14.70
2018-01-11T20:43:16.521Z,13.75
2018-01-11T20:45:48.681Z,15.38
2018-01-11T20:48:19.080Z,17.30
2018-01-11T20:50:49.595Z,15.25
2018-01-11T20:53:20.739Z,13.62
2018-01-11T20:55:51.813Z,13.77
2018-01-11T20:58:24.263Z,14.13
2018-01-11T21:00:52.481Z,14.30
2018-01-11T21:03:20.341Z,13.75
2018-01-11T21:05:48.208Z,13.57
2018-01-11T21:08:16.077Z,14.60
2018-01-11T21:10:43.843Z,15.98
2018-01-11T21:13:11.709Z,13.23
2018-01-11T21:15:39.575Z,13.93
2018-01-11T21:18:07.444Z,13.55
2018-01-11T21:20:35.310Z,13.50
2018-01-11T21:23:03.282Z,13.52
2018-01-11T21:25:31.152Z,13.98
2018-01-11T21:27:59.016Z,15.70
2018-01-11T21:30:26.882Z,14.30
2018-01-11T21:32:54.750Z,14.02
2018-01-11T21:35:22.617Z,14.00
2018-01-11T21:37:50.485Z,15.45
2018-01-11T21:40:18.352Z,15.15
2018-01-11T21:42:46.219Z,15.25
2018-01-11T21:45:14.086Z,16.35
2018-01-11T21:47:41.954Z,15.38
2018-01-11T21:50:09.813Z,14.18
2018-01-11T21:52:37.688Z,14.55
2018-01-11T21:55:05.556Z,13.15
2018-01-11T21:57:33.422Z,13.13
2018-01-11T22:00:01.322Z,13.65
2018-01-11T22:02:29.977Z,14.00
2018-01-11T22:04:57.843Z,13.60
2018-01-11T22:07:25.712Z,12.73
2018-01-11T22:09:53.578Z,11.63
2018-01-11T22:12:21.446Z,13.00
2018-01-11T22:14:49.314Z,13.13
2018-01-11T22:17:17.180Z,12.65
2018-01-11T22:19:45.048Z,14.48
2018-01-11T22:22:12.916Z,15.27
2018-01-11T22:24:40.782Z,14.87
2018-01-11T22:27:08.652Z,13.88
2018-01-11T22:29:36.518Z,13.55
2018-01-11T22:32:04.385Z,16.40
2018-01-11T22:34:32.252Z,15.45
2018-01-11T22:37:00.119Z,15.70
2018-01-11T22:39:27.987Z,13.50
2018-01-11T22:41:55.854Z,14.77
2018-01-11T22:44:23.722Z,13.50
2018-01-11T22:46:51.588Z,14.63
2018-01-11T22:49:19.456Z,15.90
2018-01-11T22:51:47.332Z,14.02
2018-01-11T22:54:15.190Z,13.25
2018-01-11T22:56:43.059Z,15.30
2018-01-11T22:59:10.924Z,15.38
2018-01-11T23:01:38.793Z,16.00
2018-01-11T23:04:06.659Z,16.45
2018-01-11T23:06:34.542Z,17.58
2018-01-11T23:09:02.497Z,15.77
2018-01-11T23:11:35.830Z,16.83
2018-01-11T23:14:04.478Z,15.85
2018-01-11T23:16:32.345Z,19.00
2018-01-11T23:19:00.212Z,20.05
2018-01-11T23:21:30.796Z,17.25
2018-01-11T23:23:58.815Z,16.73
2018-01-11T23:26:26.682Z,15.90
2018-01-11T23:28:54.549Z,15.80
2018-01-11T23:31:22.416Z,17.37
2018-01-11T23:33:50.284Z,15.98
2018-01-11T23:36:18.151Z,14.35
2018-01-11T23:38:46.023Z,14.70
2018-01-11T23:41:13.886Z,14.52
2018-01-11T23:43:41.753Z,15.52
2018-01-11T23:46:09.620Z,15.52
2018-01-11T23:48:37.417Z,16.92
2018-01-11T23:51:06.072Z,15.10
2018-01-11T23:53:33.940Z,16.15
2018-01-11T23:56:01.807Z,13.85
2018-01-11T23:58:29.675Z,14.05
